Time;durP1;ratioP1;P1;durP2;ratioP2;P2;SDS_P1;SDS_P2;PMS_P1;PMS_P2;Temp;Humidity;BMP_temperature;BMP_pressure;BME280_temperature;BME280_humidity;BME280_pressure;Samples;Min_cycle;Max_cycle;Signal;HPM_P1;HPM_P2
2023/01/27 00:00:34;;;;;;;8.98;2.38;;;;;;;4.07;98.35;102614.97;6189431;23;20022;-77
2023/01/27 00:03:00;;;;;;;8.38;2.55;;;;;;;4.08;98.18;102619.13;6188938;23;20041;-77
2023/01/27 00:05:27;;;;;;;11.18;2.40;;;;;;;4.07;98.03;102620.22;6189538;23;20020;-77
2023/01/27 00:07:57;;;;;;;7.28;2.80;;;;;;;4.06;97.27;102618.69;6189466;23;20041;-77
2023/01/27 00:10:24;;;;;;;5.60;3.15;;;;;;;4.02;96.96;102621.28;6162246;23;20025;-77
2023/01/27 00:15:36;;;;;;;5.78;2.70;;;;;;;3.97;96.08;102613.66;6189747;23;20022;-77
2023/01/27 00:18:03;;;;;;;9.00;3.00;;;;;;;3.94;95.78;102605.69;6188594;23;20503;-77
2023/01/27 00:26:17;;;;;;;9.63;2.75;;;;;;;3.87;95.60;102616.09;6189378;23;20019;-76
2023/01/27 00:28:45;;;;;;;8.13;3.53;;;;;;;3.86;95.70;102617.97;6189833;23;20014;-77
2023/01/27 00:34:07;;;;;;;6.70;3.20;;;;;;;3.85;95.77;102619.06;6162623;23;20414;-77
2023/01/27 00:36:36;;;;;;;9.07;2.92;;;;;;;3.83;95.86;102620.53;6162932;23;20021;-76
2023/01/27 00:39:05;;;;;;;5.53;2.95;;;;;;;3.82;95.98;102619.78;6189381;23;20024;-76
2023/01/27 00:41:32;;;;;;;4.88;3.15;;;;;;;3.82;95.81;102621.66;6189259;23;20017;-78
2023/01/27 00:44:00;;;;;;;11.85;3.58;;;;;;;3.80;95.83;102626.50;6162650;23;20442;-77
2023/01/27 00:46:27;;;;;;;9.65;3.55;;;;;;;3.79;95.73;102627.59;6162343;23;20018;-76
2023/01/27 00:48:54;;;;;;;7.32;3.20;;;;;;;3.79;95.91;102619.69;6189236;23;20041;-76
2023/01/27 00:51:21;;;;;;;5.82;3.30;;;;;;;3.78;95.67;102623.44;6162358;23;20026;-77
2023/01/27 00:53:48;;;;;;;11.07;3.50;;;;;;;3.77;95.57;102635.09;6162594;23;20021;-76
2023/01/27 00:56:15;;;;;;;7.43;4.18;;;;;;;3.76;95.46;102636.97;6137359;23;20101;-76
2023/01/27 00:58:42;;;;;;;9.02;4.30;;;;;;;3.74;95.21;102626.00;6189557;23;20013;-76
2023/01/27 01:01:11;;;;;;;6.80;4.20;;;;;;;3.74;95.02;102626.00;6161835;23;20021;-77
2023/01/27 01:03:38;;;;;;;8.73;3.92;;;;;;;3.73;94.45;102616.56;6162471;23;20014;-76
2023/01/27 01:06:08;;;;;;;6.43;4.22;;;;;;;3.74;94.89;102638.41;6189055;23;20049;-76
2023/01/27 01:08:36;;;;;;;7.65;4.38;;;;;;;3.74;94.71;102638.41;6162862;23;20022;-76
2023/01/27 01:11:08;;;;;;;9.88;4.82;;;;;;;3.74;94.76;102627.88;6162131;23;20103;-77
2023/01/27 01:13:35;;;;;;;5.97;3.97;;;;;;;3.74;94.92;102636.53;6162277;23;20017;-76
2023/01/27 01:16:06;;;;;;;15.02;4.63;;;;;;;3.72;94.91;102638.75;6188305;23;20032;-76
2023/01/27 01:18:33;;;;;;;8.70;4.63;;;;;;;3.72;94.86;102638.00;6162368;23;20073;-76
2023/01/27 01:21:00;;;;;;;7.68;4.57;;;;;;;3.71;94.54;102639.09;6188702;23;20018;-76
2023/01/27 01:23:27;;;;;;;6.35;4.38;;;;;;;3.68;94.12;102636.03;6187188;23;20014;-76
2023/01/27 01:25:56;;;;;;;9.90;5.00;;;;;;;3.69;94.25;102645.47;6188931;23;20041;-76
2023/01/27 01:28:24;;;;;;;8.45;4.90;;;;;;;3.69;94.15;102639.44;6162322;23;20467;-76
2023/01/27 01:30:51;;;;;;;12.25;4.97;;;;;;;3.69;94.26;102634.19;6188560;23;20340;-76
2023/01/27 01:33:17;;;;;;;9.23;4.72;;;;;;;3.68;94.49;102641.31;6188871;23;20024;-76
2023/01/27 01:35:44;;;;;;;6.18;4.55;;;;;;;3.68;94.42;102640.56;6162512;23;20094;-76
2023/01/27 01:38:11;;;;;;;6.40;4.70;;;;;;;3.68;94.25;102641.31;6188433;23;20090;-76
2023/01/27 01:40:42;;;;;;;8.48;4.65;;;;;;;3.67;94.61;102639.78;6189222;23;20029;-76
2023/01/27 01:43:14;;;;;;;8.50;4.63;;;;;;;3.68;94.40;102646.59;6188916;23;20478;-76
2023/01/27 01:45:48;;;;;;;9.27;5.07;;;;;;;3.69;94.41;102652.63;6189224;23;20017;-76
2023/01/27 01:48:35;;;;;;;13.13;5.30;;;;;;;3.69;94.57;102649.97;6188300;23;20013;-76
2023/01/27 01:51:12;;;;;;;7.80;4.90;;;;;;;3.68;94.73;102649.22;6172898;23;20423;-76
2023/01/27 01:54:00;;;;;;;8.45;4.53;;;;;;;3.69;94.87;102650.75;6189126;23;20024;-76
2023/01/27 01:56:36;;;;;;;9.98;4.85;;;;;;;3.70;95.02;102648.88;6188695;23;20056;-76
2023/01/27 01:59:08;;;;;;;14.70;4.40;;;;;;;3.69;95.02;102645.47;6186724;23;20418;-76
2023/01/27 02:01:34;;;;;;;10.85;5.38;;;;;;;3.70;95.08;102648.88;6188715;23;20080;-76
2023/01/27 02:04:06;;;;;;;11.48;5.00;;;;;;;3.69;95.19;102648.09;6188792;23;20024;-77
2023/01/27 02:06:47;;;;;;;7.70;4.90;;;;;;;3.69;95.20;102650.75;6162519;23;20518;-77
2023/01/27 02:09:14;;;;;;;9.70;5.57;;;;;;;3.69;95.22;102647.34;6186770;23;20013;-77
2023/01/27 02:11:41;;;;;;;7.68;4.70;;;;;;;3.67;95.45;102658.22;6187216;23;20424;-77
2023/01/27 02:14:12;;;;;;;13.70;5.18;;;;;;;3.66;95.51;102669.88;6188096;23;20013;-77
2023/01/27 02:16:39;;;;;;;9.48;5.30;;;;;;;3.67;95.45;102670.63;6189291;23;20076;-77
2023/01/27 02:19:13;;;;;;;8.32;5.55;;;;;;;3.65;95.59;102665.72;6188552;23;20024;-77
2023/01/27 02:21:41;;;;;;;9.90;5.18;;;;;;;3.64;95.98;102655.53;6184107;23;20341;-77
2023/01/27 02:24:11;;;;;;;10.57;5.60;;;;;;;3.63;95.64;102659.25;6187224;23;20021;-77
2023/01/27 02:26:41;;;;;;;9.45;5.30;;;;;;;3.63;95.70;102667.16;6187228;23;20100;-77
2023/01/27 02:29:12;;;;;;;10.98;5.50;;;;;;;3.62;95.66;102663.00;6187520;23;20065;-77
2023/01/27 02:31:39;;;;;;;9.38;5.60;;;;;;;3.60;95.71;102658.06;6187235;23;20089;-77
2023/01/27 02:34:12;;;;;;;10.25;5.97;;;;;;;3.59;95.34;102664.47;6188032;23;20096;-77
2023/01/27 02:36:46;;;;;;;8.38;5.13;;;;;;;3.58;95.57;102665.59;6188492;23;20053;-77
2023/01/27 02:39:17;;;;;;;11.57;5.95;;;;;;;3.56;95.57;102664.41;6187783;23;20017;-77
2023/01/27 02:41:53;;;;;;;13.38;6.40;;;;;;;3.53;95.46;102668.47;6187538;23;20408;-78
2023/01/27 02:44:20;;;;;;;12.23;5.65;;;;;;;3.52;95.50;102668.81;6188141;23;20048;-77
2023/01/27 02:46:47;;;;;;;13.02;5.65;;;;;;;3.49;95.67;102675.53;6188448;23;20053;-78
2023/01/27 02:49:14;;;;;;;12.30;5.90;;;;;;;3.47;95.79;102671.72;6189442;23;20013;-77
2023/01/27 02:51:41;;;;;;;10.48;5.47;;;;;;;3.47;95.75;102687.53;6168144;23;20037;-79
2023/01/27 02:54:07;;;;;;;12.35;6.93;;;;;;;3.43;95.57;102682.19;6192908;23;20072;-77
2023/01/27 02:56:34;;;;;;;10.40;6.13;;;;;;;3.43;95.47;102673.50;6192016;23;20025;-77
2023/01/27 02:59:01;;;;;;;9.52;5.97;;;;;;;3.40;95.51;102680.22;6192692;23;20016;-77
2023/01/27 03:01:33;;;;;;;15.68;6.75;;;;;;;3.39;95.45;102683.19;6192788;23;20083;-77
2023/01/27 03:04:01;;;;;;;11.15;6.28;;;;;;;3.37;95.49;102691.44;6193067;23;20032;-77
2023/01/27 03:06:27;;;;;;;9.95;7.13;;;;;;;3.34;95.42;102698.16;6219868;23;20023;-77
2023/01/27 03:08:54;;;;;;;9.18;6.93;;;;;;;3.33;95.26;102693.22;6219745;23;20071;-77
2023/01/27 03:14:07;;;;;;;14.73;7.35;;;;;;;3.28;95.53;102691.63;6193086;23;20023;-76
2023/01/27 03:19:19;;;;;;;10.38;7.13;;;;;;;3.27;95.03;102694.59;6218060;23;20023;-77
2023/01/27 03:21:49;;;;;;;12.43;7.25;;;;;;;3.28;95.15;102693.47;6193347;23;20467;-77
2023/01/27 03:24:16;;;;;;;12.07;7.60;;;;;;;3.28;95.32;102709.28;6193080;23;20029;-76
2023/01/27 03:26:43;;;;;;;11.27;7.10;;;;;;;3.28;95.55;102704.78;6192955;23;20403;-77
2023/01/27 03:31:59;;;;;;;11.07;6.53;;;;;;;3.27;95.59;102707.75;6218261;23;20084;-76
2023/01/27 03:34:27;;;;;;;13.18;7.47;;;;;;;3.26;95.63;102709.63;6192524;23;20018;-77
2023/01/27 03:48:05;;;;;;;9.18;6.82;;;;;;;3.23;94.94;102707.66;6219858;23;20036;-77
2023/01/27 03:50:41;;;;;;;9.52;6.72;;;;;;;3.24;94.73;102711.06;6209198;23;20017;-76
2023/01/27 03:53:09;;;;;;;9.98;6.22;;;;;;;3.23;94.35;102702.41;6189553;23;20087;-76
2023/01/27 03:55:37;;;;;;;10.70;6.95;;;;;;;3.24;94.33;102705.78;6189075;23;20474;-76
2023/01/27 03:58:18;;;;;;;8.27;6.03;;;;;;;3.25;94.03;102708.09;6189512;23;20021;-77
2023/01/27 04:00:46;;;;;;;7.50;5.15;;;;;;;3.26;93.18;102706.97;6189628;23;20018;-76
2023/01/27 04:08:47;;;;;;;7.18;5.43;;;;;;;3.29;91.86;102711.56;6189063;23;20039;-76
2023/01/27 04:14:00;;;;;;;5.50;4.50;;;;;;;3.33;91.82;102719.56;6189418;23;20549;-76
2023/01/27 04:16:29;;;;;;;6.65;5.20;;;;;;;3.33;91.23;102722.19;6189236;23;20017;-76
2023/01/27 04:18:56;;;;;;;6.07;4.95;;;;;;;3.35;90.90;102717.34;6189259;23;20017;-76
2023/01/27 04:21:24;;;;;;;5.35;4.85;;;;;;;3.35;90.70;102726.00;6189226;23;20014;-76
2023/01/27 04:23:53;;;;;;;7.05;5.05;;;;;;;3.35;90.51;102723.38;6188958;23;20049;-78
2023/01/27 04:26:20;;;;;;;5.00;4.50;;;;;;;3.36;90.41;102724.13;6189401;23;20018;-77
2023/01/27 04:28:48;;;;;;;4.68;4.25;;;;;;;3.37;90.55;102727.53;6189917;23;20037;-78
2023/01/27 04:31:16;;;;;;;6.35;5.00;;;;;;;3.38;90.50;102729.81;6189027;23;20014;-78
2023/01/27 04:33:43;;;;;;;6.35;5.32;;;;;;;3.38;90.49;102731.69;6189752;23;20021;-77
2023/01/27 04:36:14;;;;;;;5.00;4.25;;;;;;;3.38;90.59;102732.47;6188925;23;20021;-77
2023/01/27 04:38:41;;;;;;;4.72;4.22;;;;;;;3.38;90.43;102743.00;6189192;23;20014;-77
2023/01/27 04:41:07;;;;;;;7.88;4.32;;;;;;;3.39;90.47;102736.63;6189956;23;20024;-78
2023/01/27 04:43:34;;;;;;;4.57;4.03;;;;;;;3.40;90.52;102737.38;6190501;23;20017;-78
2023/01/27 04:46:00;;;;;;;4.38;3.28;;;;;;;3.40;90.48;102740.78;6190110;23;20518;-78
2023/01/27 04:48:27;;;;;;;4.10;3.70;;;;;;;3.40;90.46;102734.75;6189237;23;20452;-78
2023/01/27 04:50:54;;;;;;;4.53;4.22;;;;;;;3.41;90.40;102733.66;6188504;23;20017;-78
2023/01/27 04:53:20;;;;;;;4.60;3.72;;;;;;;3.41;90.23;102739.69;6162352;23;20084;-77
2023/01/27 04:55:48;;;;;;;4.00;3.70;;;;;;;3.42;90.09;102737.81;6189044;23;20022;-78
2023/01/27 04:58:16;;;;;;;4.05;3.50;;;;;;;3.43;90.02;102739.34;6188993;23;20013;-78
2023/01/27 05:00:44;;;;;;;4.68;3.05;;;;;;;3.44;89.81;102736.38;6189483;23;20209;-77
2023/01/27 05:03:11;;;;;;;3.20;3.00;;;;;;;3.45;89.78;102737.13;6188812;23;20479;-78
2023/01/27 05:05:38;;;;;;;3.30;3.10;;;;;;;3.43;89.48;102731.44;6189466;23;20097;-77
2023/01/27 05:08:05;;;;;;;3.67;3.17;;;;;;;3.45;89.39;102731.88;6188354;23;20017;-78
2023/01/27 05:10:32;;;;;;;3.42;3.20;;;;;;;3.46;89.65;102736.03;6189207;23;20013;-78
2023/01/27 05:12:58;;;;;;;6.10;3.10;;;;;;;3.46;89.43;102731.53;6162308;23;20396;-78
2023/01/27 05:15:25;;;;;;;4.32;2.83;;;;;;;3.47;89.40;102734.91;6187371;23;20431;-79
2023/01/27 05:17:51;;;;;;;2.70;2.50;;;;;;;3.46;89.01;102739.41;6189057;23;20013;-78
2023/01/27 05:20:18;;;;;;;3.55;3.25;;;;;;;3.47;89.06;102738.31;6189071;23;20020;-77
2023/01/27 05:22:45;;;;;;;3.97;3.00;;;;;;;3.49;88.89;102746.63;6188737;23;20021;-78
2023/01/27 05:25:11;;;;;;;3.20;3.00;;;;;;;3.48;88.71;102741.72;6188200;23;20904;-78
2023/01/27 05:27:38;;;;;;;3.90;3.42;;;;;;;3.50;88.69;102753.44;6189385;23;20014;-78
2023/01/27 05:30:05;;;;;;;3.20;3.00;;;;;;;3.49;88.80;102754.53;6189035;23;20470;-78
2023/01/27 05:32:32;;;;;;;3.58;3.33;;;;;;;3.52;88.85;102761.00;6189010;23;20018;-78
2023/01/27 05:34:58;;;;;;;3.45;2.90;;;;;;;3.51;89.10;102767.38;6188989;23;20076;-77
2023/01/27 05:37:25;;;;;;;6.43;3.08;;;;;;;3.50;89.13;102756.06;6188300;23;20017;-78
2023/01/27 05:39:51;;;;;;;3.42;2.58;;;;;;;3.51;89.09;102776.03;6188924;23;20045;-78
2023/01/27 05:42:18;;;;;;;3.60;3.30;;;;;;;3.51;89.17;102770.75;6188814;23;20028;-78
2023/01/27 05:44:44;;;;;;;3.63;3.38;;;;;;;3.52;88.84;102766.25;6189534;23;20049;-78
2023/01/27 05:47:11;;;;;;;3.83;3.42;;;;;;;3.52;89.01;102764.41;6162385;23;20049;-78
2023/01/27 05:49:37;;;;;;;5.68;3.58;;;;;;;3.52;89.00;102764.41;6189572;23;20021;-78
2023/01/27 05:52:04;;;;;;;3.90;3.60;;;;;;;3.51;89.04;102770.00;6185138;23;20022;-78
2023/01/27 05:54:30;;;;;;;3.22;3.00;;;;;;;3.52;88.91;102771.53;6188868;23;20018;-78
2023/01/27 05:56:57;;;;;;;4.93;3.58;;;;;;;3.51;89.00;102780.53;6188841;23;20022;-78
2023/01/27 05:59:23;;;;;;;3.65;3.10;;;;;;;3.51;88.97;102778.66;6188679;23;20017;-77
2023/01/27 06:01:50;;;;;;;3.35;3.13;;;;;;;3.51;88.86;102789.19;6187417;23;20080;-78
2023/01/27 06:04:17;;;;;;;3.30;3.10;;;;;;;3.52;88.62;102789.97;6186400;23;20527;-78
2023/01/27 06:06:43;;;;;;;3.22;3.03;;;;;;;3.52;88.51;102796.00;6187363;23;20021;-77
2023/01/27 06:09:10;;;;;;;3.88;3.47;;;;;;;3.52;88.64;102792.59;6189756;23;20017;-78
2023/01/27 06:11:37;;;;;;;2.95;2.75;;;;;;;3.52;88.22;102788.09;6190234;23;20026;-78
2023/01/27 06:14:03;;;;;;;3.00;2.80;;;;;;;3.53;88.53;102791.50;6189686;23;20513;-77
2023/01/27 06:16:30;;;;;;;3.30;3.00;;;;;;;3.51;88.05;102796.34;6189869;23;20017;-78
2023/01/27 06:18:57;;;;;;;3.95;3.03;;;;;;;3.51;88.23;102794.47;6187358;23;20017;-77
2023/01/27 06:21:24;;;;;;;3.30;3.10;;;;;;;3.49;88.18;102801.94;6189971;23;20341;-77
2023/01/27 06:23:52;;;;;;;3.45;2.72;;;;;;;3.51;88.38;102805.00;6190323;23;20014;-77
2023/01/27 06:26:19;;;;;;;5.20;2.83;;;;;;;3.49;88.57;102809.84;6189782;23;20043;-77
2023/01/27 06:28:46;;;;;;;3.00;2.80;;;;;;;3.47;87.94;102809.41;6190165;23;20017;-77
2023/01/27 06:31:16;;;;;;;6.15;3.15;;;;;;;3.48;88.41;102810.94;6187581;23;20021;-77
2023/01/27 06:33:42;;;;;;;4.13;2.97;;;;;;;3.47;88.36;102811.28;6187552;23;20459;-77
2023/01/27 06:36:12;;;;;;;2.97;2.70;;;;;;;3.46;88.21;102818.41;6189793;23;20022;-77
2023/01/27 06:38:39;;;;;;;4.00;2.92;;;;;;;3.46;87.70;102822.91;6187961;23;20028;-77
2023/01/27 06:41:05;;;;;;;6.25;2.90;;;;;;;3.45;87.24;102827.41;6187912;23;20044;-77
2023/01/27 06:43:32;;;;;;;5.03;3.33;;;;;;;3.47;86.61;102827.09;6189694;23;20013;-77
2023/01/27 06:45:59;;;;;;;3.58;2.80;;;;;;;3.46;86.71;102828.19;6189642;23;20052;-76
2023/01/27 06:48:27;;;;;;;3.10;2.90;;;;;;;3.43;86.10;102823.59;6188897;23;20065;-77
2023/01/27 06:50:54;;;;;;;2.60;2.40;;;;;;;3.43;85.44;102821.72;6189091;23;20448;-77
2023/01/27 06:53:22;;;;;;;3.75;2.90;;;;;;;3.43;85.15;102813.06;6189669;23;20014;-77
2023/01/27 06:55:54;;;;;;;2.90;2.63;;;;;;;3.43;85.48;102818.31;6189874;23;20021;-77
2023/01/27 06:58:21;;;;;;;3.00;2.80;;;;;;;3.42;85.20;102820.19;6189662;23;20056;-76
2023/01/27 07:00:47;;;;;;;2.95;2.75;;;;;;;3.42;84.94;102824.69;6190131;23;20017;-77
2023/01/27 07:03:14;;;;;;;2.67;2.47;;;;;;;3.42;84.94;102816.78;6161975;23;20384;-76
2023/01/27 07:05:43;;;;;;;3.22;2.45;;;;;;;3.41;84.45;102815.28;6189728;23;20045;-76
2023/01/27 07:08:10;;;;;;;2.95;2.75;;;;;;;3.40;84.43;102819.00;6162777;23;20462;-77
2023/01/27 07:10:37;;;;;;;3.80;2.85;;;;;;;3.39;84.13;102809.56;6190085;23;20521;-77
2023/01/27 07:13:10;;;;;;;2.70;2.50;;;;;;;3.38;84.34;102821.97;6189698;23;20013;-78
2023/01/27 07:15:37;;;;;;;2.45;2.35;;;;;;;3.36;84.18;102818.91;6190223;23;20020;-76
2023/01/27 07:18:04;;;;;;;3.08;2.88;;;;;;;3.36;83.94;102816.28;6188730;23;20024;-75
2023/01/27 07:20:31;;;;;;;3.10;2.90;;;;;;;3.34;83.76;102818.50;6189332;23;20470;-77
2023/01/27 07:22:59;;;;;;;3.50;2.97;;;;;;;3.32;83.19;102816.19;6189648;23;20360;-78
2023/01/27 07:25:26;;;;;;;3.22;2.83;;;;;;;3.32;83.20;102821.47;6189561;23;20514;-78
2023/01/27 07:27:53;;;;;;;2.72;2.53;;;;;;;3.32;83.43;102810.94;6189275;23;20076;-78
2023/01/27 07:30:20;;;;;;;3.00;2.80;;;;;;;3.30;83.51;102826.28;6163676;23;20108;-76
2023/01/27 07:32:49;;;;;;;2.70;2.55;;;;;;;3.29;83.31;102819.50;6189427;23;20013;-76
2023/01/27 07:35:16;;;;;;;3.05;2.63;;;;;;;3.28;83.28;102820.59;6189233;23;20009;-77
2023/01/27 07:37:43;;;;;;;4.93;3.30;;;;;;;3.29;83.20;102829.25;6188708;23;20017;-76
2023/01/27 07:40:12;;;;;;;3.63;2.63;;;;;;;3.30;83.27;102828.16;6190353;23;20088;-77
2023/01/27 07:42:39;;;;;;;3.72;2.92;;;;;;;3.29;83.56;102845.06;6188114;23;20020;-77
2023/01/27 07:45:07;;;;;;;2.72;2.53;;;;;;;3.29;83.50;102830.03;6188200;23;20404;-77
2023/01/27 07:47:33;;;;;;;3.92;2.47;;;;;;;3.31;83.57;102837.59;6187154;23;20072;-77
2023/01/27 07:50:00;;;;;;;2.95;2.75;;;;;;;3.30;83.52;102839.47;6161005;23;20018;-77
2023/01/27 07:52:26;;;;;;;3.03;2.72;;;;;;;3.32;83.76;102842.53;6190163;23;20014;-77
2023/01/27 07:54:53;;;;;;;3.08;2.75;;;;;;;3.31;83.80;102845.50;6164180;23;20470;-77
2023/01/27 07:57:19;;;;;;;5.38;2.75;;;;;;;3.29;83.53;102845.06;6189738;23;20143;-78
2023/01/27 07:59:46;;;;;;;5.15;2.80;;;;;;;3.25;83.84;102844.19;6190281;23;20064;-80
2023/01/27 08:02:15;;;;;;;2.63;2.42;;;;;;;3.20;83.86;102847.84;6138703;23;20017;-81
2023/01/27 08:04:42;;;;;;;2.60;2.40;;;;;;;3.16;84.01;102839.13;6190366;23;20088;-79
2023/01/27 08:07:19;;;;;;;3.88;2.50;;;;;;;3.15;83.82;102852.63;6190022;23;20018;-79
2023/01/27 08:09:45;;;;;;;2.80;2.60;;;;;;;3.14;83.93;102851.84;6190227;23;20018;-79
2023/01/27 08:12:12;;;;;;;3.17;2.75;;;;;;;3.12;83.81;102846.16;6189903;23;20017;-78
2023/01/27 08:14:38;;;;;;;2.75;2.45;;;;;;;3.13;84.11;102846.91;6190431;23;20024;-79
2023/01/27 08:17:05;;;;;;;3.97;2.65;;;;;;;3.14;84.46;102845.81;6189556;23;20028;-78
2023/01/27 08:19:31;;;;;;;2.78;2.50;;;;;;;3.15;84.16;102853.38;6138791;23;20033;-79
2023/01/27 08:21:58;;;;;;;2.17;1.98;;;;;;;3.22;84.37;102850.91;6190369;23;20043;-79
2023/01/27 08:24:24;;;;;;;2.42;2.20;;;;;;;3.30;84.30;102859.75;6190632;23;20077;-81
2023/01/27 08:26:51;;;;;;;2.50;2.30;;;;;;;3.37;84.21;102856.53;6190629;23;20014;-80
2023/01/27 08:29:17;;;;;;;2.38;2.17;;;;;;;3.41;83.90;102865.28;6190319;23;20017;-81
2023/01/27 08:31:44;;;;;;;2.25;2.05;;;;;;;3.39;84.13;102857.72;6190771;23;20017;-80
2023/01/27 08:34:11;;;;;;;5.20;2.22;;;;;;;3.38;84.13;102856.19;6190212;23;20026;-79
2023/01/27 08:36:42;;;;;;;2.95;1.90;;;;;;;3.33;84.12;102856.44;6190002;23;20333;-77
2023/01/27 08:39:09;;;;;;;2.67;1.92;;;;;;;3.31;84.06;102850.75;6190352;23;20045;-78
2023/01/27 08:41:37;;;;;;;4.55;2.15;;;;;;;3.28;83.93;102857.47;6190392;23;20013;-80
2023/01/27 08:44:03;;;;;;;2.08;1.80;;;;;;;3.26;83.69;102854.41;6189639;23;20017;-79
2023/01/27 08:46:30;;;;;;;2.30;2.10;;;;;;;3.25;83.96;102860.75;6189757;23;20265;-79
2023/01/27 08:49:00;;;;;;;4.60;2.20;;;;;;;3.28;84.25;102867.22;6189945;23;20046;-79
2023/01/27 08:51:26;;;;;;;5.40;2.25;;;;;;;3.26;84.06;102862.28;6189721;23;20021;-79
2023/01/27 08:53:53;;;;;;;3.85;1.58;;;;;;;3.25;83.78;102871.28;6163917;23;20080;-79
2023/01/27 08:56:19;;;;;;;1.73;1.63;;;;;;;3.26;84.02;102866.78;6189619;23;20018;-79
2023/01/27 08:58:47;;;;;;;2.90;1.95;;;;;;;3.26;84.15;102872.81;6189649;23;20472;-79
2023/01/27 09:01:15;;;;;;;1.70;1.60;;;;;;;3.28;84.07;102870.63;6189662;23;20021;-77
2023/01/27 09:03:44;;;;;;;1.85;1.75;;;;;;;3.31;84.16;102879.72;6163823;23;20017;-78
2023/01/27 09:06:15;;;;;;;4.10;1.80;;;;;;;3.32;84.34;102875.97;6163646;23;20017;-78
2023/01/27 09:08:43;;;;;;;4.65;1.80;;;;;;;3.31;84.23;102885.75;6190163;23;20022;-78
2023/01/27 09:11:12;;;;;;;2.40;2.20;;;;;;;3.33;84.20;102896.72;6190217;23;20022;-79
2023/01/27 09:13:38;;;;;;;2.70;2.08;;;;;;;3.34;84.01;102897.47;6189789;23;20044;-78
2023/01/27 09:16:05;;;;;;;4.10;2.00;;;;;;;3.35;84.03;102888.47;6190293;23;20017;-77
2023/01/27 09:18:33;;;;;;;1.63;1.42;;;;;;;3.35;84.01;102891.88;6189552;23;20068;-78
2023/01/27 09:21:04;;;;;;;4.05;2.10;;;;;;;3.38;84.04;102897.56;6164011;23;20470;-77
2023/01/27 09:23:32;;;;;;;1.98;1.77;;;;;;;3.33;83.82;102896.72;6189919;23;20017;-78
2023/01/27 09:25:58;;;;;;;2.42;1.88;;;;;;;3.30;84.07;102910.53;6163729;23;20025;-77
2023/01/27 09:28:25;;;;;;;3.28;2.00;;;;;;;3.28;84.44;102911.97;6189133;23;20021;-78
2023/01/27 09:30:56;;;;;;;2.03;1.92;;;;;;;3.28;84.52;102919.88;6138613;23;20025;-78
2023/01/27 09:33:24;;;;;;;5.03;2.47;;;;;;;3.32;84.59;102923.38;6189477;23;20020;-78
2023/01/27 09:36:08;;;;;;;1.88;1.77;;;;;;;3.35;84.85;102922.69;6189822;23;20158;-78
2023/01/27 09:38:40;;;;;;;2.88;2.17;;;;;;;3.43;84.80;102921.78;6163154;23;20053;-78
2023/01/27 09:41:27;;;;;;;7.05;2.15;;;;;;;3.54;84.92;102919.44;6189827;23;20048;-78
2023/01/27 09:43:57;;;;;;;2.50;2.30;;;;;;;3.59;84.75;102919.97;6189351;23;20014;-76
2023/01/27 09:46:51;;;;;;;2.60;2.40;;;;;;;3.61;84.93;102915.09;6189566;23;20018;-75
2023/01/27 09:49:26;;;;;;;4.28;2.28;;;;;;;3.63;84.88;102920.78;6189567;23;20053;-79
2023/01/27 09:52:10;;;;;;;3.78;2.20;;;;;;;3.66;84.16;102924.63;6189592;23;20013;-79
2023/01/27 09:54:39;;;;;;;6.45;2.30;;;;;;;3.69;84.24;102922.06;6190199;23;20018;-77
2023/01/27 09:57:15;;;;;;;3.42;2.22;;;;;;;3.76;84.16;102929.38;6189430;23;20024;-80
2023/01/27 10:00:17;;;;;;;6.72;2.88;;;;;;;3.80;84.19;102918.94;6190410;23;20076;-79
2023/01/27 10:03:08;;;;;;;;;;;;;;;3.84;84.88;102931.09;6190286;23;20447;-79
2023/01/27 10:06:04;;;;;;;2.22;2.00;;;;;;;3.83;84.22;102929.56;6189696;23;19932;-79
2023/01/27 10:08:55;;;;;;;2.78;2.55;;;;;;;3.81;84.59;102928.38;6154368;23;20081;-79
2023/01/27 10:11:51;;;;;;;2.67;2.47;;;;;;;3.85;84.57;102924.72;6162499;23;20029;-82
2023/01/27 10:14:23;;;;;;;3.05;2.58;;;;;;;3.81;84.48;102915.19;6189481;23;20017;-78
2023/01/27 10:17:18;;;;;;;16.92;9.65;;;;;;;3.82;84.51;102924.63;6189429;23;20073;-78
2023/01/27 10:20:16;;;;;;;4.25;2.70;;;;;;;3.81;84.60;102923.09;6189878;23;20080;-77
2023/01/27 10:22:54;;;;;;;3.17;2.78;;;;;;;3.83;84.70;102931.44;6143312;23;20444;-76
2023/01/27 10:25:43;;;;;;;2.60;2.40;;;;;;;3.86;84.41;102931.53;6188530;23;20396;-77
2023/01/27 10:28:14;;;;;;;4.03;3.30;;;;;;;3.82;84.64;102932.53;6163271;23;20025;-77
2023/01/27 10:31:01;;;;;;;3.08;2.50;;;;;;;3.88;84.79;102936.44;6191250;23;20018;-77
2023/01/27 10:33:49;;;;;;;2.83;2.55;;;;;;;3.89;84.92;102930.84;6162586;23;20348;-77
2023/01/27 10:36:28;;;;;;;2.80;2.60;;;;;;;3.89;84.29;102941.38;6189270;23;20447;-78
2023/01/27 10:39:01;;;;;;;2.25;2.13;;;;;;;3.89;84.01;102944.03;6189784;23;20024;-77
2023/01/27 10:41:57;;;;;;;2.75;2.55;;;;;;;3.88;83.52;102937.22;6188696;23;20089;-77
2023/01/27 10:44:23;;;;;;;3.20;2.90;;;;;;;3.87;83.46;102933.06;6175730;23;20021;-77
2023/01/27 10:47:11;;;;;;;2.92;2.67;;;;;;;3.92;83.89;102938.06;6189368;23;20080;-79
2023/01/27 10:49:40;;;;;;;2.70;2.50;;;;;;;3.95;83.62;102947.16;6189805;23;20092;-79
2023/01/27 10:52:14;;;;;;;2.85;2.65;;;;;;;3.99;83.73;102948.03;6189290;23;20088;-78
2023/01/27 10:54:59;;;;;;;4.50;2.65;;;;;;;4.05;84.06;102945.88;6163300;23;20033;-77
2023/01/27 10:57:36;;;;;;;3.03;2.72;;;;;;;4.07;83.65;102941.03;6190442;23;20021;-79
2023/01/27 11:00:40;;;;;;;3.08;2.88;;;;;;;4.04;83.93;102939.84;6190529;23;20020;-78
2023/01/27 11:03:34;;;;;;;2.65;2.42;;;;;;;4.07;83.53;102941.78;6190142;23;20065;-80
2023/01/27 11:06:10;;;;;;;4.50;2.70;;;;;;;4.06;83.44;102926.31;6190389;23;20412;-79
2023/01/27 11:08:41;;;;;;;4.05;2.58;;;;;;;4.05;83.15;102936.09;6190370;23;20017;-79
2023/01/27 11:14:03;;;;;;;5.50;2.55;;;;;;;4.08;83.66;102926.75;6190341;23;20411;-78
2023/01/27 11:16:37;;;;;;;3.28;2.88;;;;;;;4.09;83.43;102928.28;6192298;23;20448;-79
2023/01/27 11:19:23;;;;;;;2.97;2.78;;;;;;;4.07;83.50;102925.97;6193169;23;20077;-80
2023/01/27 11:21:52;;;;;;;3.55;3.00;;;;;;;4.08;83.65;102924.09;6164868;23;20455;-78
2023/01/27 11:24:46;;;;;;;2.92;2.70;;;;;;;4.08;83.70;102921.47;6189433;23;20017;-79
2023/01/27 11:27:24;;;;;;;3.33;3.08;;;;;;;4.08;83.70;102924.88;6190358;23;20018;-79
2023/01/27 11:29:57;;;;;;;3.88;3.05;;;;;;;4.08;83.91;102924.88;6192137;23;20020;-78
2023/01/27 11:32:49;;;;;;;2.90;2.65;;;;;;;4.09;83.88;102915.09;6163824;23;20021;-77
2023/01/27 11:35:16;;;;;;;3.00;2.70;;;;;;;4.05;83.97;102911.59;6190416;23;20036;-77
2023/01/27 11:37:52;;;;;;;3.75;2.80;;;;;;;4.06;84.15;102911.25;6190283;23;20022;-78
2023/01/27 11:40:33;;;;;;;3.10;2.90;;;;;;;4.08;84.16;102911.69;6166198;23;20018;-78
2023/01/27 11:43:02;;;;;;;3.70;2.95;;;;;;;4.11;84.28;102912.88;6190399;23;20017;-78
2023/01/27 11:45:37;;;;;;;5.07;2.47;;;;;;;4.11;84.12;102905.75;6163226;23;20084;-78
2023/01/27 11:48:10;;;;;;;2.97;2.75;;;;;;;4.11;83.96;102903.09;6190456;23;20080;-79
2023/01/27 11:50:37;;;;;;;2.97;2.78;;;;;;;4.10;83.46;102906.06;6190234;23;20024;-78
2023/01/27 11:53:10;;;;;;;3.30;3.03;;;;;;;4.13;83.61;102902.75;6189880;23;20018;-76
2023/01/27 11:55:41;;;;;;;3.50;3.20;;;;;;;4.18;83.21;102908.53;6190272;23;20014;-77
2023/01/27 11:58:16;;;;;;;3.10;2.70;;;;;;;4.23;83.31;102897.75;6190298;23;20021;-78
2023/01/27 12:00:48;;;;;;;5.45;2.80;;;;;;;4.28;83.08;102896.72;6190348;23;20018;-77
2023/01/27 12:03:29;;;;;;;2.85;2.63;;;;;;;4.28;82.51;102897.47;6189974;23;20013;-79
2023/01/27 12:06:01;;;;;;;2.97;2.63;;;;;;;4.29;82.22;102893.72;6189659;23;20018;-80
2023/01/27 12:08:41;;;;;;;3.13;2.83;;;;;;;4.37;82.38;102888.63;6189574;23;20442;-75
2023/01/27 12:11:23;;;;;;;4.03;2.60;;;;;;;4.43;82.26;102892.50;6163864;23;20065;-76
2023/01/27 12:13:54;;;;;;;;;;;;;;;4.52;82.54;102890.44;6191178;23;20022;-78
2023/01/27 12:16:25;;;;;;;2.53;2.35;;;;;;;4.58;81.81;102887.19;6190399;23;19927;-78
2023/01/27 12:19:02;;;;;;;3.05;2.65;;;;;;;4.64;81.93;102885.03;6190387;23;20037;-80
2023/01/27 12:21:43;;;;;;;5.68;2.30;;;;;;;4.68;81.79;102878.72;6190495;23;20010;-79
2023/01/27 12:24:23;;;;;;;3.77;2.57;;;;;;;4.70;81.34;102870.47;6191317;23;20352;-80
2023/01/27 12:26:52;;;;;;;3.22;2.92;;;;;;;4.74;80.63;102875.81;6164831;23;20360;-75
2023/01/27 12:29:25;;;;;;;3.45;3.08;;;;;;;4.81;80.58;102878.56;6163413;23;20077;-76
2023/01/27 12:31:54;;;;;;;4.88;2.63;;;;;;;4.87;80.72;102870.03;6190517;23;20076;-76